sensor_id;sensor_type;location;lat;lon;timestamp;pressure;altitude;pressure_sealevel;temperature;humidity
45078;BME280;60508;42.622;25.416;2023-11-21T00:01:32;96611.09;;;7.71;60.68
45078;BME280;60508;42.622;25.416;2023-11-21T00:03:58;96610.41;;;7.75;60.35
45078;BME280;60508;42.622;25.416;2023-11-21T00:06:25;96620.81;;;7.65;61.38
45078;BME280;60508;42.622;25.416;2023-11-21T00:08:51;96620.81;;;7.53;61.63
45078;BME280;60508;42.622;25.416;2023-11-21T00:11:18;96599.63;;;7.52;61.97
45078;BME280;60508;42.622;25.416;2023-11-21T00:13:54;96610.59;;;7.62;61.62
45078;BME280;60508;42.622;25.416;2023-11-21T00:16:20;96614.34;;;7.73;61.17
45078;BME280;60508;42.622;25.416;2023-11-21T00:18:48;96619.56;;;7.67;61.65
45078;BME280;60508;42.622;25.416;2023-11-21T00:21:23;96611.78;;;7.78;61.08
45078;BME280;60508;42.622;25.416;2023-11-21T00:23:50;96610.47;;;7.68;61.68
45078;BME280;60508;42.622;25.416;2023-11-21T00:26:17;96612.94;;;7.70;61.91
45078;BME280;60508;42.622;25.416;2023-11-21T00:28:47;96620.22;;;7.93;60.90
45078;BME280;60508;42.622;25.416;2023-11-21T00:31:14;96605.63;;;7.77;61.17
45078;BME280;60508;42.622;25.416;2023-11-21T00:33:41;96615.66;;;7.82;61.76
45078;BME280;60508;42.622;25.416;2023-11-21T00:36:08;96610.66;;;7.97;61.13
45078;BME280;60508;42.622;25.416;2023-11-21T00:38:36;96610.53;;;8.04;60.34
45078;BME280;60508;42.622;25.416;2023-11-21T00:41:04;96608.81;;;8.10;60.66
45078;BME280;60508;42.622;25.416;2023-11-21T00:43:33;96599.75;;;8.22;60.33
45078;BME280;60508;42.622;25.416;2023-11-21T00:46:12;96604.88;;;8.24;59.79
45078;BME280;60508;42.622;25.416;2023-11-21T00:48:44;96613.47;;;8.38;59.13
45078;BME280;60508;42.622;25.416;2023-11-21T00:51:10;96615.31;;;8.02;60.21
45078;BME280;60508;42.622;25.416;2023-11-21T00:53:47;96612.44;;;7.61;61.36
45078;BME280;60508;42.622;25.416;2023-11-21T00:56:14;96611.78;;;7.36;62.48
45078;BME280;60508;42.622;25.416;2023-11-21T00:58:42;96615.59;;;7.28;62.68
45078;BME280;60508;42.622;25.416;2023-11-21T01:01:13;96611.97;;;7.22;62.90
45078;BME280;60508;42.622;25.416;2023-11-21T01:03:40;96609.94;;;7.06;63.78
45078;BME280;60508;42.622;25.416;2023-11-21T01:06:18;96606.94;;;7.14;63.61
45078;BME280;60508;42.622;25.416;2023-11-21T01:08:45;96607.63;;;7.09;63.97
45078;BME280;60508;42.622;25.416;2023-11-21T01:11:12;96594.56;;;7.01;64.01
45078;BME280;60508;42.622;25.416;2023-11-21T01:13:39;96584.44;;;6.91;64.80
45078;BME280;60508;42.622;25.416;2023-11-21T01:16:15;96601.09;;;7.05;64.90
45078;BME280;60508;42.622;25.416;2023-11-21T01:18:41;96595.59;;;7.00;65.02
45078;BME280;60508;42.622;25.416;2023-11-21T01:21:08;96581.66;;;6.98;64.96
45078;BME280;60508;42.622;25.416;2023-11-21T01:23:35;96589.13;;;7.08;64.90
45078;BME280;60508;42.622;25.416;2023-11-21T01:26:01;96582.28;;;7.12;63.78
45078;BME280;60508;42.622;25.416;2023-11-21T01:28:38;96582.56;;;6.92;64.12
45078;BME280;60508;42.622;25.416;2023-11-21T01:31:05;96587.63;;;6.82;64.93
45078;BME280;60508;42.622;25.416;2023-11-21T01:33:33;96584.78;;;6.95;64.37
45078;BME280;60508;42.622;25.416;2023-11-21T01:35:59;96582.72;;;6.79;65.31
45078;BME280;60508;42.622;25.416;2023-11-21T01:38:26;96579.97;;;6.67;65.87
45078;BME280;60508;42.622;25.416;2023-11-21T01:40:53;96573.63;;;6.49;66.79
45078;BME280;60508;42.622;25.416;2023-11-21T01:43:19;96584.59;;;6.60;66.53
45078;BME280;60508;42.622;25.416;2023-11-21T01:45:57;96565.38;;;6.14;68.02
45078;BME280;60508;42.622;25.416;2023-11-21T01:48:24;96571.91;;;6.36;67.80
45078;BME280;60508;42.622;25.416;2023-11-21T01:50:52;96567.16;;;6.57;67.01
45078;BME280;60508;42.622;25.416;2023-11-21T01:53:21;96571.22;;;6.78;66.52
45078;BME280;60508;42.622;25.416;2023-11-21T01:55:49;96570.78;;;6.81;64.92
45078;BME280;60508;42.622;25.416;2023-11-21T01:58:15;96575.91;;;6.46;66.76
45078;BME280;60508;42.622;25.416;2023-11-21T02:00:42;96571.97;;;6.48;66.78
45078;BME280;60508;42.622;25.416;2023-11-21T02:03:19;96585.84;;;6.57;66.37
45078;BME280;60508;42.622;25.416;2023-11-21T02:05:48;96568.88;;;6.51;66.05
45078;BME280;60508;42.622;25.416;2023-11-21T02:08:15;96567.91;;;6.27;66.91
45078;BME280;60508;42.622;25.416;2023-11-21T02:10:43;96586.00;;;6.25;66.99
45078;BME280;60508;42.622;25.416;2023-11-21T02:13:09;96579.16;;;6.29;66.92
45078;BME280;60508;42.622;25.416;2023-11-21T02:15:37;96578.72;;;6.32;67.03
45078;BME280;60508;42.622;25.416;2023-11-21T02:18:05;96566.69;;;6.23;66.92
45078;BME280;60508;42.622;25.416;2023-11-21T02:20:39;96568.19;;;5.94;68.54
45078;BME280;60508;42.622;25.416;2023-11-21T02:23:08;96558.59;;;5.86;69.11
45078;BME280;60508;42.622;25.416;2023-11-21T02:25:34;96559.19;;;6.13;68.24
45078;BME280;60508;42.622;25.416;2023-11-21T02:28:03;96554.41;;;6.22;68.01
45078;BME280;60508;42.622;25.416;2023-11-21T02:30:30;96550.31;;;6.19;67.86
45078;BME280;60508;42.622;25.416;2023-11-21T02:33:09;96563.94;;;6.30;66.95
45078;BME280;60508;42.622;25.416;2023-11-21T02:35:36;96558.91;;;6.21;68.10
45078;BME280;60508;42.622;25.416;2023-11-21T02:38:04;96555.06;;;6.17;68.11
45078;BME280;60508;42.622;25.416;2023-11-21T02:40:30;96555.00;;;6.06;68.84
45078;BME280;60508;42.622;25.416;2023-11-21T02:42:57;96552.63;;;6.16;68.63
45078;BME280;60508;42.622;25.416;2023-11-21T02:45:35;96550.16;;;6.33;68.23
45078;BME280;60508;42.622;25.416;2023-11-21T02:48:03;96552.03;;;6.32;67.74
45078;BME280;60508;42.622;25.416;2023-11-21T02:50:31;96544.69;;;6.28;68.72
45078;BME280;60508;42.622;25.416;2023-11-21T02:52:57;96559.53;;;6.42;68.36
45078;BME280;60508;42.622;25.416;2023-11-21T02:55:27;96554.25;;;6.54;67.63
45078;BME280;60508;42.622;25.416;2023-11-21T02:57:54;96559.66;;;6.47;66.98
45078;BME280;60508;42.622;25.416;2023-11-21T03:00:33;96555.50;;;6.33;67.84
45078;BME280;60508;42.622;25.416;2023-11-21T03:02:59;96564.09;;;6.16;68.93
45078;BME280;60508;42.622;25.416;2023-11-21T03:05:26;96560.84;;;6.33;68.59
45078;BME280;60508;42.622;25.416;2023-11-21T03:07:55;96569.28;;;6.30;68.09
45078;BME280;60508;42.622;25.416;2023-11-21T03:10:32;96572.00;;;6.05;68.48
45078;BME280;60508;42.622;25.416;2023-11-21T03:12:59;96580.03;;;6.05;68.50
45078;BME280;60508;42.622;25.416;2023-11-21T03:15:25;96583.44;;;5.87;68.83
45078;BME280;60508;42.622;25.416;2023-11-21T03:18:02;96574.59;;;5.86;69.29
45078;BME280;60508;42.622;25.416;2023-11-21T03:20:30;96581.47;;;5.75;69.70
45078;BME280;60508;42.622;25.416;2023-11-21T03:22:56;96565.91;;;5.72;69.24
45078;BME280;60508;42.622;25.416;2023-11-21T03:25:23;96571.78;;;5.56;70.24
45078;BME280;60508;42.622;25.416;2023-11-21T03:27:50;96578.13;;;5.55;70.66
45078;BME280;60508;42.622;25.416;2023-11-21T03:30:28;96572.44;;;5.51;70.70
45078;BME280;60508;42.622;25.416;2023-11-21T03:32:55;96579.94;;;5.61;71.00
45078;BME280;60508;42.622;25.416;2023-11-21T03:35:21;96574.19;;;5.64;70.54
45078;BME280;60508;42.622;25.416;2023-11-21T03:37:58;96574.03;;;5.52;70.07
45078;BME280;60508;42.622;25.416;2023-11-21T03:40:25;96572.50;;;5.06;71.77
45078;BME280;60508;42.622;25.416;2023-11-21T03:42:52;96573.44;;;5.18;71.91
45078;BME280;60508;42.622;25.416;2023-11-21T03:45:31;96566.31;;;5.44;71.06
45078;BME280;60508;42.622;25.416;2023-11-21T03:47:57;96584.97;;;5.44;72.11
45078;BME280;60508;42.622;25.416;2023-11-21T03:50:24;96588.25;;;5.46;72.17
45078;BME280;60508;42.622;25.416;2023-11-21T03:52:50;96598.25;;;5.51;70.79
45078;BME280;60508;42.622;25.416;2023-11-21T03:55:17;96601.84;;;5.38;71.60
45078;BME280;60508;42.622;25.416;2023-11-21T03:57:54;96599.03;;;5.58;70.73
45078;BME280;60508;42.622;25.416;2023-11-21T04:00:21;96607.94;;;5.45;71.68
45078;BME280;60508;42.622;25.416;2023-11-21T04:02:48;96606.22;;;5.57;70.99
45078;BME280;60508;42.622;25.416;2023-11-21T04:05:14;96602.16;;;5.48;71.93
45078;BME280;60508;42.622;25.416;2023-11-21T04:07:51;96599.38;;;5.36;71.90
45078;BME280;60508;42.622;25.416;2023-11-21T04:10:18;96610.31;;;5.21;72.36
45078;BME280;60508;42.622;25.416;2023-11-21T04:12:45;96609.53;;;5.14;72.72
45078;BME280;60508;42.622;25.416;2023-11-21T04:15:11;96603.16;;;5.22;72.23
45078;BME280;60508;42.622;25.416;2023-11-21T04:17:41;96597.41;;;5.18;72.65
45078;BME280;60508;42.622;25.416;2023-11-21T04:20:09;96596.75;;;5.29;72.07
45078;BME280;60508;42.622;25.416;2023-11-21T04:22:37;96599.94;;;5.45;71.72
45078;BME280;60508;42.622;25.416;2023-11-21T04:25:17;96602.06;;;5.61;71.10
45078;BME280;60508;42.622;25.416;2023-11-21T04:27:45;96596.47;;;5.70;70.67
45078;BME280;60508;42.622;25.416;2023-11-21T04:30:12;96596.41;;;5.76;70.50
45078;BME280;60508;42.622;25.416;2023-11-21T04:32:49;96599.44;;;5.87;69.72
45078;BME280;60508;42.622;25.416;2023-11-21T04:35:17;96603.94;;;5.86;69.82
45078;BME280;60508;42.622;25.416;2023-11-21T04:37:43;96604.97;;;5.85;69.55
45078;BME280;60508;42.622;25.416;2023-11-21T04:40:10;96609.00;;;5.69;70.16
45078;BME280;60508;42.622;25.416;2023-11-21T04:42:47;96609.09;;;5.81;69.83
45078;BME280;60508;42.622;25.416;2023-11-21T04:45:14;96603.78;;;5.81;69.66
45078;BME280;60508;42.622;25.416;2023-11-21T04:47:41;96609.00;;;5.94;69.30
45078;BME280;60508;42.622;25.416;2023-11-21T04:50:20;96606.16;;;5.89;69.41
45078;BME280;60508;42.622;25.416;2023-11-21T04:52:47;96611.50;;;5.89;69.73
45078;BME280;60508;42.622;25.416;2023-11-21T04:55:14;96599.44;;;5.87;69.90
45078;BME280;60508;42.622;25.416;2023-11-21T04:57:42;96594.63;;;5.70;70.13
45078;BME280;60508;42.622;25.416;2023-11-21T05:00:20;96596.69;;;5.68;70.42
45078;BME280;60508;42.622;25.416;2023-11-21T05:02:47;96607.06;;;5.76;69.93
45078;BME280;60508;42.622;25.416;2023-11-21T05:05:14;96618.47;;;5.90;69.25
45078;BME280;60508;42.622;25.416;2023-11-21T05:07:41;96613.94;;;5.65;69.15
45078;BME280;60508;42.622;25.416;2023-11-21T05:10:08;96624.19;;;5.62;69.95
45078;BME280;60508;42.622;25.416;2023-11-21T05:12:38;96633.28;;;5.54;70.28
45078;BME280;60508;42.622;25.416;2023-11-21T05:15:16;96626.50;;;5.26;71.83
45078;BME280;60508;42.622;25.416;2023-11-21T05:17:44;96628.91;;;5.35;71.53
45078;BME280;60508;42.622;25.416;2023-11-21T05:20:13;96629.63;;;5.10;71.79
45078;BME280;60508;42.622;25.416;2023-11-21T05:22:49;96629.75;;;5.28;72.27
45078;BME280;60508;42.622;25.416;2023-11-21T05:25:17;96626.84;;;5.69;71.36
45078;BME280;60508;42.622;25.416;2023-11-21T05:27:45;96631.88;;;6.09;70.18
45078;BME280;60508;42.622;25.416;2023-11-21T05:30:22;96631.72;;;6.29;69.11
45078;BME280;60508;42.622;25.416;2023-11-21T05:32:49;96637.50;;;6.44;68.39
45078;BME280;60508;42.622;25.416;2023-11-21T05:35:16;96623.94;;;6.46;68.00
45078;BME280;60508;42.622;25.416;2023-11-21T05:37:42;96637.16;;;6.78;67.13
45078;BME280;60508;42.622;25.416;2023-11-21T05:40:09;96632.84;;;6.76;66.53
45078;BME280;60508;42.622;25.416;2023-11-21T05:42:46;96644.88;;;6.86;66.18
45078;BME280;60508;42.622;25.416;2023-11-21T05:45:13;96641.91;;;6.94;65.89
45078;BME280;60508;42.622;25.416;2023-11-21T05:47:41;96637.84;;;6.91;65.84
45078;BME280;60508;42.622;25.416;2023-11-21T05:50:18;96623.16;;;6.82;66.26
45078;BME280;60508;42.622;25.416;2023-11-21T05:52:46;96639.25;;;6.75;67.54
45078;BME280;60508;42.622;25.416;2023-11-21T05:55:13;96638.19;;;6.76;67.71
45078;BME280;60508;42.622;25.416;2023-11-21T05:57:41;96638.78;;;6.97;66.77
45078;BME280;60508;42.622;25.416;2023-11-21T06:00:13;96637.63;;;6.93;66.76
45078;BME280;60508;42.622;25.416;2023-11-21T06:02:52;96634.78;;;6.88;66.73
45078;BME280;60508;42.622;25.416;2023-11-21T06:05:29;96621.16;;;6.78;67.15
45078;BME280;60508;42.622;25.416;2023-11-21T06:07:58;96631.38;;;6.81;68.21
45078;BME280;60508;42.622;25.416;2023-11-21T06:10:25;96631.91;;;6.71;68.94
45078;BME280;60508;42.622;25.416;2023-11-21T06:12:52;96628.56;;;6.75;68.73
45078;BME280;60508;42.622;25.416;2023-11-21T06:15:29;96632.63;;;6.78;69.21
45078;BME280;60508;42.622;25.416;2023-11-21T06:17:56;96641.53;;;6.90;68.75
45078;BME280;60508;42.622;25.416;2023-11-21T06:20:24;96636.50;;;6.82;68.74
45078;BME280;60508;42.622;25.416;2023-11-21T06:23:00;96639.53;;;6.67;69.74
45078;BME280;60508;42.622;25.416;2023-11-21T06:25:29;96650.97;;;6.74;69.08
45078;BME280;60508;42.622;25.416;2023-11-21T06:27:59;96650.22;;;6.86;68.76
45078;BME280;60508;42.622;25.416;2023-11-21T06:30:36;96648.88;;;6.95;68.92
45078;BME280;60508;42.622;25.416;2023-11-21T06:33:03;96645.91;;;7.03;67.96
45078;BME280;60508;42.622;25.416;2023-11-21T06:35:29;96643.06;;;7.17;67.61
45078;BME280;60508;42.622;25.416;2023-11-21T06:37:58;96620.41;;;7.07;66.77
45078;BME280;60508;42.622;25.416;2023-11-21T06:40:25;96649.44;;;7.34;66.42
45078;BME280;60508;42.622;25.416;2023-11-21T06:42:59;96651.25;;;7.52;66.53
45078;BME280;60508;42.622;25.416;2023-11-21T06:45:26;96657.31;;;7.59;66.33
45078;BME280;60508;42.622;25.416;2023-11-21T06:47:52;96650.56;;;7.57;66.37
45078;BME280;60508;42.622;25.416;2023-11-21T06:50:19;96657.31;;;7.90;65.90
45078;BME280;60508;42.622;25.416;2023-11-21T06:52:56;96648.63;;;8.18;64.14
45078;BME280;60508;42.622;25.416;2023-11-21T06:55:23;96648.16;;;8.21;63.21
45078;BME280;60508;42.622;25.416;2023-11-21T06:57:49;96646.50;;;8.08;63.02
45078;BME280;60508;42.622;25.416;2023-11-21T07:00:35;96646.50;;;8.08;63.87
45078;BME280;60508;42.622;25.416;2023-11-21T07:03:01;96666.09;;;8.32;62.89
45078;BME280;60508;42.622;25.416;2023-11-21T07:05:28;96667.28;;;8.48;62.34
45078;BME280;60508;42.622;25.416;2023-11-21T07:07:54;96675.78;;;8.57;61.72
45078;BME280;60508;42.622;25.416;2023-11-21T07:10:21;96676.50;;;8.64;61.24
45078;BME280;60508;42.622;25.416;2023-11-21T07:12:48;96665.03;;;8.92;60.16
45078;BME280;60508;42.622;25.416;2023-11-21T07:15:14;96669.09;;;9.07;59.78
45078;BME280;60508;42.622;25.416;2023-11-21T07:17:41;96674.13;;;9.44;59.09
45078;BME280;60508;42.622;25.416;2023-11-21T07:20:08;96668.22;;;9.59;57.84
45078;BME280;60508;42.622;25.416;2023-11-21T07:22:35;96667.03;;;9.66;58.08
45078;BME280;60508;42.622;25.416;2023-11-21T07:25:01;96682.13;;;9.84;57.57
45078;BME280;60508;42.622;25.416;2023-11-21T07:27:28;96674.84;;;10.14;56.77
45078;BME280;60508;42.622;25.416;2023-11-21T07:30:06;96668.09;;;10.11;56.20
45078;BME280;60508;42.622;25.416;2023-11-21T07:32:34;96668.81;;;10.74;54.96
45078;BME280;60508;42.622;25.416;2023-11-21T07:35:01;96678.16;;;11.11;54.15
45078;BME280;60508;42.622;25.416;2023-11-21T07:37:37;96680.22;;;11.48;52.39
45078;BME280;60508;42.622;25.416;2023-11-21T07:40:04;96662.34;;;11.37;52.04
45078;BME280;60508;42.622;25.416;2023-11-21T07:42:31;96668.63;;;11.92;50.62
45078;BME280;60508;42.622;25.416;2023-11-21T07:44:58;96675.81;;;11.86;49.98
45078;BME280;60508;42.622;25.416;2023-11-21T07:47:24;96680.16;;;11.87;49.91
45078;BME280;60508;42.622;25.416;2023-11-21T07:49:53;96665.53;;;12.05;50.03
45078;BME280;60508;42.622;25.416;2023-11-21T07:52:22;96667.75;;;12.46;48.47
45078;BME280;60508;42.622;25.416;2023-11-21T07:54:59;96666.84;;;12.35;48.37
45078;BME280;60508;42.622;25.416;2023-11-21T07:57:26;96653.22;;;11.87;48.70
45078;BME280;60508;42.622;25.416;2023-11-21T07:59:52;96659.97;;;11.90;48.82
45078;BME280;60508;42.622;25.416;2023-11-21T08:02:30;96647.41;;;11.73;49.21
45078;BME280;60508;42.622;25.416;2023-11-21T08:04:57;96645.78;;;12.27;49.36
45078;BME280;60508;42.622;25.416;2023-11-21T08:07:23;96637.66;;;12.59;46.88
45078;BME280;60508;42.622;25.416;2023-11-21T08:09:50;96634.38;;;12.52;47.22
45078;BME280;60508;42.622;25.416;2023-11-21T08:12:16;96636.75;;;12.91;47.14
45078;BME280;60508;42.622;25.416;2023-11-21T08:14:54;96640.34;;;13.07;45.71
45078;BME280;60508;42.622;25.416;2023-11-21T08:17:20;96643.84;;;13.02;45.56
45078;BME280;60508;42.622;25.416;2023-11-21T08:19:47;96642.19;;;13.01;45.29
45078;BME280;60508;42.622;25.416;2023-11-21T08:22:15;96645.06;;;12.79;46.37
45078;BME280;60508;42.622;25.416;2023-11-21T08:24:44;96647.81;;;12.89;46.14
45078;BME280;60508;42.622;25.416;2023-11-21T08:27:18;96642.22;;;13.06;45.83
45078;BME280;60508;42.622;25.416;2023-11-21T08:29:45;96652.28;;;13.16;45.06
45078;BME280;60508;42.622;25.416;2023-11-21T08:32:12;96643.66;;;13.24;45.53
45078;BME280;60508;42.622;25.416;2023-11-21T08:34:40;96642.44;;;13.58;44.52
45078;BME280;60508;42.622;25.416;2023-11-21T08:37:09;96634.41;;;13.78;44.43
45078;BME280;60508;42.622;25.416;2023-11-21T08:39:44;96643.88;;;13.81;43.87
45078;BME280;60508;42.622;25.416;2023-11-21T08:42:11;96633.91;;;14.28;42.67
45078;BME280;60508;42.622;25.416;2023-11-21T08:44:37;96634.97;;;14.47;42.27
45078;BME280;60508;42.622;25.416;2023-11-21T08:47:06;96629.28;;;14.43;42.84
45078;BME280;60508;42.622;25.416;2023-11-21T08:49:42;96622.25;;;14.53;42.37
45078;BME280;60508;42.622;25.416;2023-11-21T08:52:09;96615.97;;;14.99;41.52
45078;BME280;60508;42.622;25.416;2023-11-21T08:54:36;96615.72;;;14.85;41.21
45078;BME280;60508;42.622;25.416;2023-11-21T08:57:03;96610.91;;;14.46;41.60
45078;BME280;60508;42.622;25.416;2023-11-21T08:59:30;96601.69;;;14.72;41.96
45078;BME280;60508;42.622;25.416;2023-11-21T09:01:56;96595.72;;;14.75;41.90
45078;BME280;60508;42.622;25.416;2023-11-21T09:04:23;96593.34;;;15.39;41.11
45078;BME280;60508;42.622;25.416;2023-11-21T09:06:57;96576.28;;;15.83;39.93
45078;BME280;60508;42.622;25.416;2023-11-21T09:09:26;96586.81;;;16.24;39.56
45078;BME280;60508;42.622;25.416;2023-11-21T09:11:52;96588.69;;;16.24;39.30
45078;BME280;60508;42.622;25.416;2023-11-21T09:14:29;96573.34;;;16.43;39.23
45078;BME280;60508;42.622;25.416;2023-11-21T09:16:56;96576.88;;;16.44;39.20
45078;BME280;60508;42.622;25.416;2023-11-21T09:19:22;96556.28;;;16.67;39.22
45078;BME280;60508;42.622;25.416;2023-11-21T09:21:49;96551.91;;;16.95;38.33
45078;BME280;60508;42.622;25.416;2023-11-21T09:24:15;96547.09;;;17.11;38.14
45078;BME280;60508;42.622;25.416;2023-11-21T09:26:52;96535.16;;;17.12;37.59
45078;BME280;60508;42.622;25.416;2023-11-21T09:29:19;96540.38;;;17.47;37.31
45078;BME280;60508;42.622;25.416;2023-11-21T09:31:46;96550.22;;;17.24;38.23
45078;BME280;60508;42.622;25.416;2023-11-21T09:34:22;96547.06;;;17.55;37.98
45078;BME280;60508;42.622;25.416;2023-11-21T09:36:49;96532.91;;;17.58;38.11
45078;BME280;60508;42.622;25.416;2023-11-21T09:39:16;96537.13;;;17.07;39.05
45078;BME280;60508;42.622;25.416;2023-11-21T09:41:50;96529.13;;;16.96;39.81
45078;BME280;60508;42.622;25.416;2023-11-21T09:44:18;96524.84;;;17.52;38.70
45078;BME280;60508;42.622;25.416;2023-11-21T09:46:48;96527.47;;;17.39;38.66
45078;BME280;60508;42.622;25.416;2023-11-21T09:49:16;96514.97;;;17.57;39.04
45078;BME280;60508;42.622;25.416;2023-11-21T09:51:46;96516.88;;;17.75;37.28
45078;BME280;60508;42.622;25.416;2023-11-21T09:54:15;96512.63;;;17.88;38.11
45078;BME280;60508;42.622;25.416;2023-11-21T09:56:51;96496.19;;;18.12;37.59
45078;BME280;60508;42.622;25.416;2023-11-21T09:59:18;96504.69;;;17.92;37.66
45078;BME280;60508;42.622;25.416;2023-11-21T10:01:45;96497.78;;;17.80;37.04
45078;BME280;60508;42.622;25.416;2023-11-21T10:04:13;96500.59;;;17.18;37.97
45078;BME280;60508;42.622;25.416;2023-11-21T10:06:41;96497.50;;;16.87;38.79
45078;BME280;60508;42.622;25.416;2023-11-21T10:09:24;96489.59;;;15.83;40.83
45078;BME280;60508;42.622;25.416;2023-11-21T10:11:53;96489.06;;;16.40;41.06
45078;BME280;60508;42.622;25.416;2023-11-21T10:14:24;96484.53;;;16.78;40.40
45078;BME280;60508;42.622;25.416;2023-11-21T10:16:52;96488.50;;;17.10;40.15
45078;BME280;60508;42.622;25.416;2023-11-21T10:19:21;96475.84;;;17.58;39.31
45078;BME280;60508;42.622;25.416;2023-11-21T10:21:47;96476.13;;;17.75;39.27
45078;BME280;60508;42.622;25.416;2023-11-21T10:24:14;96474.34;;;17.84;39.32
45078;BME280;60508;42.622;25.416;2023-11-21T10:26:41;96474.59;;;17.69;39.19
45078;BME280;60508;42.622;25.416;2023-11-21T10:29:08;96471.84;;;17.17;41.02
45078;BME280;60508;42.622;25.416;2023-11-21T10:31:35;96472.47;;;17.66;39.81
45078;BME280;60508;42.622;25.416;2023-11-21T10:34:19;96466.78;;;17.10;41.21
45078;BME280;60508;42.622;25.416;2023-11-21T10:36:56;96466.91;;;17.38;41.83
45078;BME280;60508;42.622;25.416;2023-11-21T10:39:24;96464.00;;;17.34;41.34
45078;BME280;60508;42.622;25.416;2023-11-21T10:41:57;96457.50;;;17.82;40.80
45078;BME280;60508;42.622;25.416;2023-11-21T10:44:34;96454.69;;;18.20;40.36
45078;BME280;60508;42.622;25.416;2023-11-21T10:47:00;96451.69;;;18.36;39.70
45078;BME280;60508;42.622;25.416;2023-11-21T10:49:28;96444.66;;;18.35;39.36
45078;BME280;60508;42.622;25.416;2023-11-21T10:51:55;96444.72;;;18.43;40.61
45078;BME280;60508;42.622;25.416;2023-11-21T10:54:30;96446.44;;;18.53;40.32
45078;BME280;60508;42.622;25.416;2023-11-21T10:56:58;96440.91;;;18.72;40.01
45078;BME280;60508;42.622;25.416;2023-11-21T10:59:28;96438.91;;;18.64;40.21
45078;BME280;60508;42.622;25.416;2023-11-21T11:01:57;96428.91;;;18.46;40.53
45078;BME280;60508;42.622;25.416;2023-11-21T11:04:27;96425.50;;;18.26;41.34
45078;BME280;60508;42.622;25.416;2023-11-21T11:06:54;96412.00;;;18.07;42.01
45078;BME280;60508;42.622;25.416;2023-11-21T11:09:33;96413.31;;;17.96;42.05
45078;BME280;60508;42.622;25.416;2023-11-21T11:12:03;96407.31;;;17.80;42.54
45078;BME280;60508;42.622;25.416;2023-11-21T11:14:33;96401.13;;;18.07;42.18
45078;BME280;60508;42.622;25.416;2023-11-21T11:17:00;96409.16;;;18.26;41.49
45078;BME280;60508;42.622;25.416;2023-11-21T11:19:40;96403.53;;;18.09;41.41
45078;BME280;60508;42.622;25.416;2023-11-21T11:22:10;96396.00;;;18.33;41.33
45078;BME280;60508;42.622;25.416;2023-11-21T11:30:15;96382.63;;;18.87;40.06
45078;BME280;60508;42.622;25.416;2023-11-21T11:33:21;96390.59;;;18.84;40.25
45078;BME280;60508;42.622;25.416;2023-11-21T11:36:06;96384.69;;;18.40;41.00
45078;BME280;60508;42.622;25.416;2023-11-21T11:38:37;96386.88;;;18.66;40.83
45078;BME280;60508;42.622;25.416;2023-11-21T11:41:24;96375.03;;;17.92;41.51
45078;BME280;60508;42.622;25.416;2023-11-21T11:43:52;96375.53;;;17.94;42.26
45078;BME280;60508;42.622;25.416;2023-11-21T11:46:19;96377.41;;;17.47;43.23
45078;BME280;60508;42.622;25.416;2023-11-21T11:48:48;96359.56;;;17.74;43.27
45078;BME280;60508;42.622;25.416;2023-11-21T11:51:39;96359.63;;;18.43;41.77
45078;BME280;60508;42.622;25.416;2023-11-21T11:54:08;96360.53;;;18.11;41.71
45078;BME280;60508;42.622;25.416;2023-11-21T11:56:34;96349.63;;;17.83;42.48
45078;BME280;60508;42.622;25.416;2023-11-21T11:59:05;96354.00;;;17.51;42.78
45078;BME280;60508;42.622;25.416;2023-11-21T12:01:35;96347.09;;;17.26;43.54
45078;BME280;60508;42.622;25.416;2023-11-21T12:06:43;96339.06;;;16.64;45.21
45078;BME280;60508;42.622;25.416;2023-11-21T12:09:28;96326.75;;;16.52;45.80
45078;BME280;60508;42.622;25.416;2023-11-21T12:12:08;96326.44;;;16.35;46.79
45078;BME280;60508;42.622;25.416;2023-11-21T12:14:36;96330.78;;;16.36;46.45
45078;BME280;60508;42.622;25.416;2023-11-21T12:17:03;96328.69;;;16.28;45.95
45078;BME280;60508;42.622;25.416;2023-11-21T12:19:34;96310.16;;;16.16;46.05
45078;BME280;60508;42.622;25.416;2023-11-21T12:22:01;96322.50;;;16.46;45.24
45078;BME280;60508;42.622;25.416;2023-11-21T12:24:37;96318.38;;;16.49;45.24
45078;BME280;60508;42.622;25.416;2023-11-21T12:27:04;96325.41;;;16.31;45.72
45078;BME280;60508;42.622;25.416;2023-11-21T12:29:31;96309.06;;;16.17;45.95
45078;BME280;60508;42.622;25.416;2023-11-21T12:32:00;96320.44;;;15.95;45.97
45078;BME280;60508;42.622;25.416;2023-11-21T12:34:37;96318.34;;;15.86;46.45
45078;BME280;60508;42.622;25.416;2023-11-21T12:37:05;96313.75;;;15.87;46.61
45078;BME280;60508;42.622;25.416;2023-11-21T12:39:32;96318.38;;;16.49;45.38
45078;BME280;60508;42.622;25.416;2023-11-21T12:42:09;96319.72;;;16.70;44.62
45078;BME280;60508;42.622;25.416;2023-11-21T12:44:36;96322.25;;;16.61;44.76
45078;BME280;60508;42.622;25.416;2023-11-21T12:47:07;96315.97;;;16.47;45.32
45078;BME280;60508;42.622;25.416;2023-11-21T12:49:42;96321.81;;;16.35;45.49
45078;BME280;60508;42.622;25.416;2023-11-21T12:52:10;96326.13;;;16.17;46.77
45078;BME280;60508;42.622;25.416;2023-11-21T12:54:37;96324.81;;;15.61;49.30
45078;BME280;60508;42.622;25.416;2023-11-21T12:57:04;96332.72;;;15.58;49.81
45078;BME280;60508;42.622;25.416;2023-11-21T12:59:34;96337.72;;;15.69;49.46
45078;BME280;60508;42.622;25.416;2023-11-21T13:02:00;96343.41;;;15.73;49.25
45078;BME280;60508;42.622;25.416;2023-11-21T13:04:52;96339.41;;;15.65;49.85
45078;BME280;60508;42.622;25.416;2023-11-21T13:07:19;96327.31;;;15.58;50.15
45078;BME280;60508;42.622;25.416;2023-11-21T13:09:46;96327.03;;;15.30;50.81
45078;BME280;60508;42.622;25.416;2023-11-21T13:12:12;96321.97;;;15.23;51.75
45078;BME280;60508;42.622;25.416;2023-11-21T13:14:42;96319.81;;;15.20;51.82
45078;BME280;60508;42.622;25.416;2023-11-21T13:17:19;96316.34;;;15.14;52.06